sensor_id;sensor_type;location;lat;lon;timestamp;P1;durP1;ratioP1;P2;durP2;ratioP2
66761;SDS011;53672;48.176;16.338;2022-10-24T00:04:18;41.35;;;15.40;;
66761;SDS011;53672;48.176;16.338;2022-10-24T00:09:18;36.60;;;13.87;;
66761;SDS011;53672;48.176;16.338;2022-10-24T00:14:20;32.00;;;13.90;;
66761;SDS011;53672;48.176;16.338;2022-10-24T00:19:21;35.10;;;14.97;;
66761;SDS011;53672;48.176;16.338;2022-10-24T00:24:22;33.33;;;13.50;;
66761;SDS011;53672;48.176;16.338;2022-10-24T00:29:23;41.47;;;14.13;;
66761;SDS011;53672;48.176;16.338;2022-10-24T00:34:24;34.83;;;13.90;;
66761;SDS011;53672;48.176;16.338;2022-10-24T00:39:24;38.67;;;14.48;;
66761;SDS011;53672;48.176;16.338;2022-10-24T00:44:27;45.17;;;14.23;;
66761;SDS011;53672;48.176;16.338;2022-10-24T00:49:29;37.03;;;14.07;;
66761;SDS011;53672;48.176;16.338;2022-10-24T00:54:34;37.35;;;14.50;;
66761;SDS011;53672;48.176;16.338;2022-10-24T00:59:37;38.50;;;14.45;;
66761;SDS011;53672;48.176;16.338;2022-10-24T01:04:42;40.55;;;14.20;;
66761;SDS011;53672;48.176;16.338;2022-10-24T01:09:48;35.07;;;14.33;;
66761;SDS011;53672;48.176;16.338;2022-10-24T01:15:04;38.72;;;13.88;;
66761;SDS011;53672;48.176;16.338;2022-10-24T01:20:15;38.78;;;14.13;;
66761;SDS011;53672;48.176;16.338;2022-10-24T01:25:27;42.70;;;14.20;;
66761;SDS011;53672;48.176;16.338;2022-10-24T01:30:40;44.67;;;15.13;;
66761;SDS011;53672;48.176;16.338;2022-10-24T01:35:44;46.80;;;15.23;;
66761;SDS011;53672;48.176;16.338;2022-10-24T01:40:52;41.83;;;14.88;;
66761;SDS011;53672;48.176;16.338;2022-10-24T01:46:00;34.78;;;14.27;;
66761;SDS011;53672;48.176;16.338;2022-10-24T01:51:02;35.80;;;13.97;;
66761;SDS011;53672;48.176;16.338;2022-10-24T01:56:06;35.15;;;13.27;;
66761;SDS011;53672;48.176;16.338;2022-10-24T02:01:09;39.40;;;14.53;;
66761;SDS011;53672;48.176;16.338;2022-10-24T02:06:14;33.42;;;13.65;;
66761;SDS011;53672;48.176;16.338;2022-10-24T02:11:17;37.22;;;13.23;;
66761;SDS011;53672;48.176;16.338;2022-10-24T02:16:19;33.38;;;12.27;;
66761;SDS011;53672;48.176;16.338;2022-10-24T02:21:23;30.07;;;12.93;;
66761;SDS011;53672;48.176;16.338;2022-10-24T02:26:30;30.60;;;13.20;;
66761;SDS011;53672;48.176;16.338;2022-10-24T02:31:35;28.77;;;12.67;;
66761;SDS011;53672;48.176;16.338;2022-10-24T02:36:41;33.33;;;13.57;;
66761;SDS011;53672;48.176;16.338;2022-10-24T02:41:44;33.33;;;14.43;;
66761;SDS011;53672;48.176;16.338;2022-10-24T02:46:48;32.20;;;14.57;;
66761;SDS011;53672;48.176;16.338;2022-10-24T02:51:51;32.15;;;14.18;;
66761;SDS011;53672;48.176;16.338;2022-10-24T02:56:53;33.47;;;14.57;;
66761;SDS011;53672;48.176;16.338;2022-10-24T03:01:58;33.45;;;14.73;;
66761;SDS011;53672;48.176;16.338;2022-10-24T03:06:59;33.97;;;14.88;;
66761;SDS011;53672;48.176;16.338;2022-10-24T03:12:00;32.60;;;14.97;;
66761;SDS011;53672;48.176;16.338;2022-10-24T03:17:02;33.93;;;14.87;;
66761;SDS011;53672;48.176;16.338;2022-10-24T03:22:02;31.17;;;13.48;;
66761;SDS011;53672;48.176;16.338;2022-10-24T03:27:03;33.57;;;14.13;;
66761;SDS011;53672;48.176;16.338;2022-10-24T03:32:05;31.80;;;13.90;;
66761;SDS011;53672;48.176;16.338;2022-10-24T03:37:05;32.67;;;14.10;;
66761;SDS011;53672;48.176;16.338;2022-10-24T03:42:06;33.40;;;14.00;;
66761;SDS011;53672;48.176;16.338;2022-10-24T03:47:08;28.37;;;12.73;;
66761;SDS011;53672;48.176;16.338;2022-10-24T03:52:08;28.67;;;12.17;;
66761;SDS011;53672;48.176;16.338;2022-10-24T03:57:09;25.67;;;11.13;;
66761;SDS011;53672;48.176;16.338;2022-10-24T04:02:11;24.23;;;9.93;;
66761;SDS011;53672;48.176;16.338;2022-10-24T04:07:11;23.57;;;10.90;;
66761;SDS011;53672;48.176;16.338;2022-10-24T04:12:12;21.67;;;10.67;;
66761;SDS011;53672;48.176;16.338;2022-10-24T04:17:14;23.92;;;10.25;;
66761;SDS011;53672;48.176;16.338;2022-10-24T04:22:14;20.80;;;9.27;;
66761;SDS011;53672;48.176;16.338;2022-10-24T04:27:15;21.27;;;10.10;;
66761;SDS011;53672;48.176;16.338;2022-10-24T04:32:17;18.47;;;9.43;;
66761;SDS011;53672;48.176;16.338;2022-10-24T04:37:17;20.90;;;9.43;;
66761;SDS011;53672;48.176;16.338;2022-10-24T04:42:18;16.77;;;8.83;;
66761;SDS011;53672;48.176;16.338;2022-10-24T04:47:19;17.90;;;8.77;;
66761;SDS011;53672;48.176;16.338;2022-10-24T04:52:20;15.98;;;8.02;;
66761;SDS011;53672;48.176;16.338;2022-10-24T04:57:20;16.87;;;8.23;;
66761;SDS011;53672;48.176;16.338;2022-10-24T05:02:22;17.80;;;8.63;;
66761;SDS011;53672;48.176;16.338;2022-10-24T05:07:23;18.83;;;8.73;;
66761;SDS011;53672;48.176;16.338;2022-10-24T05:12:23;19.97;;;9.40;;
66761;SDS011;53672;48.176;16.338;2022-10-24T05:17:25;17.00;;;8.73;;
66761;SDS011;53672;48.176;16.338;2022-10-24T05:22:25;19.15;;;9.32;;
66761;SDS011;53672;48.176;16.338;2022-10-24T05:27:26;19.13;;;9.27;;
66761;SDS011;53672;48.176;16.338;2022-10-24T05:32:28;20.30;;;9.30;;
66761;SDS011;53672;48.176;16.338;2022-10-24T05:37:28;19.35;;;9.32;;
66761;SDS011;53672;48.176;16.338;2022-10-24T05:42:29;20.42;;;10.48;;
66761;SDS011;53672;48.176;16.338;2022-10-24T05:47:31;22.57;;;10.93;;
66761;SDS011;53672;48.176;16.338;2022-10-24T05:52:31;24.33;;;11.97;;
66761;SDS011;53672;48.176;16.338;2022-10-24T05:57:32;24.27;;;10.73;;
66761;SDS011;53672;48.176;16.338;2022-10-24T06:02:34;22.60;;;11.17;;
66761;SDS011;53672;48.176;16.338;2022-10-24T06:07:34;25.35;;;11.65;;
66761;SDS011;53672;48.176;16.338;2022-10-24T06:12:35;24.38;;;12.25;;
66761;SDS011;53672;48.176;16.338;2022-10-24T06:17:37;25.50;;;11.23;;
66761;SDS011;53672;48.176;16.338;2022-10-24T06:22:38;23.80;;;11.65;;
66761;SDS011;53672;48.176;16.338;2022-10-24T06:27:38;25.30;;;11.03;;
66761;SDS011;53672;48.176;16.338;2022-10-24T06:32:40;24.43;;;11.30;;
66761;SDS011;53672;48.176;16.338;2022-10-24T06:37:41;23.98;;;11.38;;
66761;SDS011;53672;48.176;16.338;2022-10-24T06:42:41;22.00;;;10.43;;
66761;SDS011;53672;48.176;16.338;2022-10-24T06:47:43;19.23;;;9.70;;
66761;SDS011;53672;48.176;16.338;2022-10-24T06:52:44;21.25;;;10.63;;
66761;SDS011;53672;48.176;16.338;2022-10-24T06:57:44;22.17;;;10.70;;
66761;SDS011;53672;48.176;16.338;2022-10-24T07:02:46;20.77;;;10.70;;
66761;SDS011;53672;48.176;16.338;2022-10-24T07:07:47;23.85;;;10.95;;
66761;SDS011;53672;48.176;16.338;2022-10-24T07:12:47;18.43;;;10.00;;
66761;SDS011;53672;48.176;16.338;2022-10-24T07:17:49;16.83;;;9.40;;
66761;SDS011;53672;48.176;16.338;2022-10-24T07:22:49;18.40;;;9.77;;
66761;SDS011;53672;48.176;16.338;2022-10-24T07:27:50;19.92;;;9.85;;
66761;SDS011;53672;48.176;16.338;2022-10-24T07:32:52;24.05;;;11.63;;
66761;SDS011;53672;48.176;16.338;2022-10-24T07:37:52;27.00;;;12.57;;
66761;SDS011;53672;48.176;16.338;2022-10-24T07:42:53;23.03;;;12.03;;
66761;SDS011;53672;48.176;16.338;2022-10-24T07:47:55;25.93;;;13.00;;
66761;SDS011;53672;48.176;16.338;2022-10-24T07:52:55;24.88;;;12.20;;
66761;SDS011;53672;48.176;16.338;2022-10-24T07:57:56;23.20;;;11.80;;
66761;SDS011;53672;48.176;16.338;2022-10-24T08:02:57;23.33;;;12.20;;
66761;SDS011;53672;48.176;16.338;2022-10-24T08:07:58;26.45;;;12.15;;
66761;SDS011;53672;48.176;16.338;2022-10-24T08:13:00;28.33;;;13.32;;
66761;SDS011;53672;48.176;16.338;2022-10-24T08:18:02;21.65;;;11.15;;
66761;SDS011;53672;48.176;16.338;2022-10-24T08:23:03;24.93;;;10.70;;
66761;SDS011;53672;48.176;16.338;2022-10-24T08:28:03;20.73;;;11.32;;
66761;SDS011;53672;48.176;16.338;2022-10-24T08:33:05;20.67;;;11.03;;
66761;SDS011;53672;48.176;16.338;2022-10-24T08:38:06;21.23;;;10.97;;
66761;SDS011;53672;48.176;16.338;2022-10-24T08:43:07;18.45;;;10.30;;
66761;SDS011;53672;48.176;16.338;2022-10-24T08:48:12;19.77;;;11.00;;
66761;SDS011;53672;48.176;16.338;2022-10-24T08:53:18;19.35;;;10.73;;
66761;SDS011;53672;48.176;16.338;2022-10-24T08:58:24;19.73;;;11.18;;
66761;SDS011;53672;48.176;16.338;2022-10-24T09:03:29;17.40;;;10.57;;
66761;SDS011;53672;48.176;16.338;2022-10-24T09:08:36;17.38;;;10.90;;
66761;SDS011;53672;48.176;16.338;2022-10-24T09:13:42;16.97;;;10.47;;
66761;SDS011;53672;48.176;16.338;2022-10-24T09:18:44;22.47;;;11.57;;
66761;SDS011;53672;48.176;16.338;2022-10-24T09:23:47;22.25;;;11.52;;
66761;SDS011;53672;48.176;16.338;2022-10-24T09:28:49;23.50;;;11.35;;
66761;SDS011;53672;48.176;16.338;2022-10-24T09:33:51;22.30;;;12.90;;
66761;SDS011;53672;48.176;16.338;2022-10-24T09:38:52;24.03;;;12.17;;
66761;SDS011;53672;48.176;16.338;2022-10-24T09:43:53;22.87;;;11.73;;
66761;SDS011;53672;48.176;16.338;2022-10-24T09:48:56;24.10;;;11.48;;
66761;SDS011;53672;48.176;16.338;2022-10-24T09:59:26;25.70;;;11.33;;
66761;SDS011;53672;48.176;16.338;2022-10-24T10:04:32;21.50;;;10.95;;
66761;SDS011;53672;48.176;16.338;2022-10-24T10:09:32;22.70;;;11.50;;
66761;SDS011;53672;48.176;16.338;2022-10-24T10:14:34;21.45;;;11.13;;
66761;SDS011;53672;48.176;16.338;2022-10-24T10:19:42;21.88;;;11.10;;
66761;SDS011;53672;48.176;16.338;2022-10-24T10:24:46;19.93;;;10.40;;
66761;SDS011;53672;48.176;16.338;2022-10-24T10:29:47;19.63;;;10.00;;
66761;SDS011;53672;48.176;16.338;2022-10-24T10:34:49;16.90;;;9.60;;
66761;SDS011;53672;48.176;16.338;2022-10-24T10:39:58;19.10;;;9.63;;
66761;SDS011;53672;48.176;16.338;2022-10-24T10:45:11;18.15;;;8.95;;
66761;SDS011;53672;48.176;16.338;2022-10-24T10:50:20;16.23;;;9.35;;
66761;SDS011;53672;48.176;16.338;2022-10-24T10:55:28;15.93;;;8.07;;
66761;SDS011;53672;48.176;16.338;2022-10-24T11:00:35;14.27;;;8.18;;
66761;SDS011;53672;48.176;16.338;2022-10-24T11:05:47;16.95;;;7.57;;
66761;SDS011;53672;48.176;16.338;2022-10-24T11:10:53;12.05;;;7.32;;
66761;SDS011;53672;48.176;16.338;2022-10-24T11:15:59;13.82;;;7.63;;
66761;SDS011;53672;48.176;16.338;2022-10-24T11:21:06;12.30;;;7.10;;
66761;SDS011;53672;48.176;16.338;2022-10-24T11:26:09;14.20;;;7.57;;
66761;SDS011;53672;48.176;16.338;2022-10-24T11:31:12;12.18;;;7.38;;
66761;SDS011;53672;48.176;16.338;2022-10-24T11:36:19;12.45;;;6.78;;
66761;SDS011;53672;48.176;16.338;2022-10-24T11:41:29;11.05;;;5.90;;
66761;SDS011;53672;48.176;16.338;2022-10-24T11:46:38;13.03;;;6.27;;
66761;SDS011;53672;48.176;16.338;2022-10-24T11:51:44;14.13;;;6.63;;
66761;SDS011;53672;48.176;16.338;2022-10-24T11:56:49;11.90;;;6.93;;
66761;SDS011;53672;48.176;16.338;2022-10-24T12:02:09;13.88;;;6.20;;
66761;SDS011;53672;48.176;16.338;2022-10-24T12:07:32;9.32;;;5.90;;
66761;SDS011;53672;48.176;16.338;2022-10-24T12:12:51;12.83;;;6.77;;
66761;SDS011;53672;48.176;16.338;2022-10-24T12:18:22;13.68;;;6.82;;
66761;SDS011;53672;48.176;16.338;2022-10-24T12:23:29;14.07;;;6.80;;
66761;SDS011;53672;48.176;16.338;2022-10-24T12:28:30;11.60;;;5.53;;
66761;SDS011;53672;48.176;16.338;2022-10-24T12:33:31;11.82;;;6.10;;
66761;SDS011;53672;48.176;16.338;2022-10-24T12:49:38;13.85;;;7.80;;
66761;SDS011;53672;48.176;16.338;2022-10-24T12:54:41;13.10;;;7.57;;
66761;SDS011;53672;48.176;16.338;2022-10-24T12:59:44;16.90;;;8.40;;
66761;SDS011;53672;48.176;16.338;2022-10-24T13:04:49;15.63;;;7.87;;
66761;SDS011;53672;48.176;16.338;2022-10-24T13:10:08;15.73;;;8.57;;
66761;SDS011;53672;48.176;16.338;2022-10-24T13:15:24;18.77;;;8.70;;
66761;SDS011;53672;48.176;16.338;2022-10-24T13:20:32;14.05;;;8.57;;
66761;SDS011;53672;48.176;16.338;2022-10-24T13:25:37;18.25;;;9.88;;
66761;SDS011;53672;48.176;16.338;2022-10-24T13:30:38;17.17;;;9.27;;
66761;SDS011;53672;48.176;16.338;2022-10-24T13:35:39;17.50;;;9.17;;
66761;SDS011;53672;48.176;16.338;2022-10-24T13:40:41;16.20;;;8.77;;
66761;SDS011;53672;48.176;16.338;2022-10-24T13:45:44;20.53;;;10.67;;
66761;SDS011;53672;48.176;16.338;2022-10-24T13:50:55;19.27;;;9.98;;
66761;SDS011;53672;48.176;16.338;2022-10-24T13:56:07;26.02;;;11.90;;
66761;SDS011;53672;48.176;16.338;2022-10-24T14:01:17;24.92;;;12.80;;
66761;SDS011;53672;48.176;16.338;2022-10-24T14:06:22;30.00;;;15.18;;
66761;SDS011;53672;48.176;16.338;2022-10-24T14:11:26;31.13;;;14.90;;
66761;SDS011;53672;48.176;16.338;2022-10-24T14:16:28;29.40;;;13.75;;
66761;SDS011;53672;48.176;16.338;2022-10-24T14:21:37;28.45;;;13.27;;
66761;SDS011;53672;48.176;16.338;2022-10-24T14:26:40;23.98;;;11.63;;
66761;SDS011;53672;48.176;16.338;2022-10-24T14:31:42;23.17;;;12.38;;
66761;SDS011;53672;48.176;16.338;2022-10-24T14:36:42;29.83;;;14.37;;
66761;SDS011;53672;48.176;16.338;2022-10-24T14:41:45;25.88;;;13.10;;
66761;SDS011;53672;48.176;16.338;2022-10-24T14:46:46;29.70;;;14.55;;
66761;SDS011;53672;48.176;16.338;2022-10-24T14:52:06;26.40;;;12.98;;
66761;SDS011;53672;48.176;16.338;2022-10-24T14:57:13;29.73;;;13.80;;
66761;SDS011;53672;48.176;16.338;2022-10-24T15:02:19;30.95;;;14.93;;
66761;SDS011;53672;48.176;16.338;2022-10-24T15:07:28;28.45;;;13.90;;
66761;SDS011;53672;48.176;16.338;2022-10-24T15:12:37;29.75;;;13.48;;
66761;SDS011;53672;48.176;16.338;2022-10-24T15:17:39;26.50;;;13.15;;
66761;SDS011;53672;48.176;16.338;2022-10-24T15:22:44;29.17;;;13.73;;
66761;SDS011;53672;48.176;16.338;2022-10-24T15:27:47;30.77;;;14.52;;
66761;SDS011;53672;48.176;16.338;2022-10-24T15:32:48;28.40;;;13.65;;
66761;SDS011;53672;48.176;16.338;2022-10-24T15:37:53;29.70;;;13.70;;
66761;SDS011;53672;48.176;16.338;2022-10-24T15:42:55;31.67;;;13.50;;
66761;SDS011;53672;48.176;16.338;2022-10-24T15:47:56;28.38;;;13.20;;
66761;SDS011;53672;48.176;16.338;2022-10-24T15:52:58;29.50;;;13.30;;
66761;SDS011;53672;48.176;16.338;2022-10-24T15:58:02;29.52;;;13.95;;
66761;SDS011;53672;48.176;16.338;2022-10-24T16:03:02;28.20;;;14.07;;
66761;SDS011;53672;48.176;16.338;2022-10-24T16:08:03;24.40;;;12.50;;
66761;SDS011;53672;48.176;16.338;2022-10-24T16:13:05;30.15;;;13.27;;
66761;SDS011;53672;48.176;16.338;2022-10-24T16:18:06;29.85;;;13.88;;
66761;SDS011;53672;48.176;16.338;2022-10-24T16:23:07;29.50;;;13.87;;
66761;SDS011;53672;48.176;16.338;2022-10-24T16:28:11;29.70;;;14.77;;
66761;SDS011;53672;48.176;16.338;2022-10-24T16:33:12;29.63;;;14.33;;
66761;SDS011;53672;48.176;16.338;2022-10-24T16:38:13;26.70;;;12.60;;
66761;SDS011;53672;48.176;16.338;2022-10-24T16:43:16;26.98;;;12.75;;
66761;SDS011;53672;48.176;16.338;2022-10-24T16:48:17;27.60;;;13.47;;
66761;SDS011;53672;48.176;16.338;2022-10-24T16:53:18;27.93;;;13.13;;
66761;SDS011;53672;48.176;16.338;2022-10-24T16:58:21;23.63;;;11.90;;
66761;SDS011;53672;48.176;16.338;2022-10-24T17:03:22;30.38;;;14.73;;
66761;SDS011;53672;48.176;16.338;2022-10-24T17:08:23;30.30;;;14.52;;
66761;SDS011;53672;48.176;16.338;2022-10-24T17:13:27;37.17;;;18.25;;
66761;SDS011;53672;48.176;16.338;2022-10-24T17:18:28;34.97;;;17.50;;
66761;SDS011;53672;48.176;16.338;2022-10-24T17:23:29;36.60;;;16.85;;
66761;SDS011;53672;48.176;16.338;2022-10-24T17:28:32;28.20;;;15.23;;
66761;SDS011;53672;48.176;16.338;2022-10-24T17:33:33;28.80;;;15.30;;
66761;SDS011;53672;48.176;16.338;2022-10-24T17:38:36;26.65;;;15.23;;
66761;SDS011;53672;48.176;16.338;2022-10-24T17:43:44;23.27;;;14.98;;
66761;SDS011;53672;48.176;16.338;2022-10-24T17:48:45;23.27;;;14.10;;
66761;SDS011;53672;48.176;16.338;2022-10-24T17:53:46;22.73;;;13.70;;
66761;SDS011;53672;48.176;16.338;2022-10-24T17:58:48;17.23;;;10.10;;
66761;SDS011;53672;48.176;16.338;2022-10-24T18:03:49;13.03;;;6.47;;
66761;SDS011;53672;48.176;16.338;2022-10-24T18:08:52;8.23;;;4.25;;
66761;SDS011;53672;48.176;16.338;2022-10-24T18:13:58;6.37;;;3.03;;
66761;SDS011;53672;48.176;16.338;2022-10-24T18:18:59;7.85;;;2.85;;
66761;SDS011;53672;48.176;16.338;2022-10-24T18:24:00;7.10;;;2.60;;
66761;SDS011;53672;48.176;16.338;2022-10-24T18:29:03;7.70;;;2.47;;
66761;SDS011;53672;48.176;16.338;2022-10-24T18:34:04;8.90;;;2.63;;
66761;SDS011;53672;48.176;16.338;2022-10-24T18:39:06;8.15;;;2.97;;
66761;SDS011;53672;48.176;16.338;2022-10-24T18:44:19;7.17;;;3.00;;
66761;SDS011;53672;48.176;16.338;2022-10-24T18:49:22;8.18;;;3.25;;
66761;SDS011;53672;48.176;16.338;2022-10-24T18:54:24;6.80;;;3.28;;
66761;SDS011;53672;48.176;16.338;2022-10-24T18:59:34;6.20;;;2.70;;
66761;SDS011;53672;48.176;16.338;2022-10-24T19:04:36;6.65;;;3.03;;
66761;SDS011;53672;48.176;16.338;2022-10-24T19:09:41;7.03;;;3.10;;
66761;SDS011;53672;48.176;16.338;2022-10-24T19:14:44;7.90;;;3.30;;
66761;SDS011;53672;48.176;16.338;2022-10-24T19:19:46;9.10;;;3.42;;
66761;SDS011;53672;48.176;16.338;2022-10-24T19:24:47;7.63;;;3.70;;
66761;SDS011;53672;48.176;16.338;2022-10-24T19:29:49;10.63;;;4.10;;
66761;SDS011;53672;48.176;16.338;2022-10-24T19:34:50;8.32;;;4.05;;
66761;SDS011;53672;48.176;16.338;2022-10-24T19:39:51;9.95;;;4.70;;
66761;SDS011;53672;48.176;16.338;2022-10-24T19:44:54;8.60;;;4.80;;
66761;SDS011;53672;48.176;16.338;2022-10-24T19:49:55;11.55;;;5.22;;
66761;SDS011;53672;48.176;16.338;2022-10-24T19:54:56;8.00;;;4.05;;
66761;SDS011;53672;48.176;16.338;2022-10-24T19:59:58;8.88;;;4.03;;
66761;SDS011;53672;48.176;16.338;2022-10-24T20:04:58;9.32;;;4.00;;
66761;SDS011;53672;48.176;16.338;2022-10-24T20:09:59;9.77;;;3.53;;
66761;SDS011;53672;48.176;16.338;2022-10-24T20:15:02;9.57;;;4.60;;
66761;SDS011;53672;48.176;16.338;2022-10-24T20:20:03;10.48;;;4.65;;
66761;SDS011;53672;48.176;16.338;2022-10-24T20:25:05;9.57;;;5.18;;
66761;SDS011;53672;48.176;16.338;2022-10-24T20:30:08;13.40;;;6.07;;
66761;SDS011;53672;48.176;16.338;2022-10-24T20:35:10;8.63;;;4.47;;
66761;SDS011;53672;48.176;16.338;2022-10-24T20:40:10;8.40;;;4.40;;
66761;SDS011;53672;48.176;16.338;2022-10-24T20:45:12;8.47;;;3.70;;
66761;SDS011;53672;48.176;16.338;2022-10-24T20:50:13;7.50;;;3.15;;
66761;SDS011;53672;48.176;16.338;2022-10-24T20:55:14;6.70;;;3.50;;
66761;SDS011;53672;48.176;16.338;2022-10-24T21:00:16;8.48;;;3.45;;
66761;SDS011;53672;48.176;16.338;2022-10-24T21:05:17;7.00;;;2.80;;
66761;SDS011;53672;48.176;16.338;2022-10-24T21:10:19;6.03;;;2.43;;
66761;SDS011;53672;48.176;16.338;2022-10-24T21:15:22;7.88;;;2.70;;
66761;SDS011;53672;48.176;16.338;2022-10-24T21:20:23;6.35;;;2.70;;
66761;SDS011;53672;48.176;16.338;2022-10-24T21:25:23;5.30;;;2.50;;
66761;SDS011;53672;48.176;16.338;2022-10-24T21:30:25;6.27;;;2.87;;
66761;SDS011;53672;48.176;16.338;2022-10-24T21:35:26;5.03;;;2.23;;
66761;SDS011;53672;48.176;16.338;2022-10-24T21:40:26;8.00;;;2.70;;
66761;SDS011;53672;48.176;16.338;2022-10-24T21:45:28;5.47;;;2.27;;
66761;SDS011;53672;48.176;16.338;2022-10-24T21:50:29;7.35;;;2.78;;
66761;SDS011;53672;48.176;16.338;2022-10-24T21:55:30;6.47;;;2.20;;
66761;SDS011;53672;48.176;16.338;2022-10-24T22:00:31;6.55;;;2.10;;
66761;SDS011;53672;48.176;16.338;2022-10-24T22:05:32;6.10;;;1.83;;
66761;SDS011;53672;48.176;16.338;2022-10-24T22:10:32;5.87;;;2.07;;
66761;SDS011;53672;48.176;16.338;2022-10-24T22:15:34;7.00;;;1.73;;
66761;SDS011;53672;48.176;16.338;2022-10-24T22:20:35;4.30;;;1.80;;
66761;SDS011;53672;48.176;16.338;2022-10-24T22:25:35;3.73;;;1.77;;
66761;SDS011;53672;48.176;16.338;2022-10-24T22:30:37;4.03;;;1.60;;
66761;SDS011;53672;48.176;16.338;2022-10-24T22:35:39;5.82;;;2.03;;
66761;SDS011;53672;48.176;16.338;2022-10-24T22:40:40;4.47;;;2.00;;
66761;SDS011;53672;48.176;16.338;2022-10-24T22:45:43;4.85;;;1.60;;
66761;SDS011;53672;48.176;16.338;2022-10-24T22:50:51;4.73;;;1.80;;
66761;SDS011;53672;48.176;16.338;2022-10-24T22:56:03;6.32;;;2.25;;
66761;SDS011;53672;48.176;16.338;2022-10-24T23:01:14;6.65;;;1.95;;
66761;SDS011;53672;48.176;16.338;2022-10-24T23:06:23;5.65;;;2.13;;
66761;SDS011;53672;48.176;16.338;2022-10-24T23:11:31;10.30;;;5.40;;
66761;SDS011;53672;48.176;16.338;2022-10-24T23:16:35;11.17;;;6.07;;
66761;SDS011;53672;48.176;16.338;2022-10-24T23:21:44;16.80;;;8.10;;
66761;SDS011;53672;48.176;16.338;2022-10-24T23:26:59;17.90;;;8.55;;
66761;SDS011;53672;48.176;16.338;2022-10-24T23:32:18;19.92;;;8.82;;
66761;SDS011;53672;48.176;16.338;2022-10-24T23:37:23;19.23;;;9.95;;
66761;SDS011;53672;48.176;16.338;2022-10-24T23:42:29;22.93;;;11.30;;
66761;SDS011;53672;48.176;16.338;2022-10-24T23:47:47;23.77;;;10.95;;
66761;SDS011;53672;48.176;16.338;2022-10-24T23:52:59;20.52;;;9.88;;
66761;SDS011;53672;48.176;16.338;2022-10-24T23:58:04;18.73;;;9.60;;
